This is the latest recevied weather packets stored in our database for station/object I1SXT-13. If no packets are shown the sender has not sent any weather packets the latest 1 day(s).
| Time | Temp. | Humidity | Pressure | Rain* | Wind** | Luminosity | Snow |
|---|---|---|---|---|---|---|---|
| 1778084068 | 17.78° C | 76% | 1010.9 hPa | 34.29 mm | - | - | - |
| 1778083764 | 18.33° C | 76% | 1011.3 hPa | 34.29 mm | - | - | - |
| 1778083170 | 17.78° C | 79% | 1010.9 hPa | 34.29 mm | - | - | - |
| 1778081670 | 17.78° C | 79% | 1010.1 hPa | 34.29 mm | - | - | - |
| 1778081069 | 17.78° C | 79% | 1010.1 hPa | 34.29 mm | - | - | - |
| 1778080765 | 18.33° C | 77% | 1010.8 hPa | 34.29 mm | - | - | - |
| 1778078968 | 19.44° C | 74% | 1010.8 hPa | 34.29 mm | - | - | - |
| 1778078664 | 19.44° C | 74% | 1010.5 hPa | 33.53 mm | - | - | - |
| 1778078367 | 20° C | 71% | 1010.5 hPa | 33.02 mm | - | - | - |
| 1778077468 | 20° C | 72% | 1009.9 hPa | 33.02 mm | - | - | - |
| 1778076867 | 20.56° C | 71% | 1009.4 hPa | 33.02 mm | - | - | - |
| 1778076570 | 20.56° C | 72% | 1009.8 hPa | 33.02 mm | - | - | - |
| 1778075070 | 21.11° C | 73% | 1010.5 hPa | 33.02 mm | - | - | - |
| 1778074766 | 20.56° C | 75% | 1010.4 hPa | 33.02 mm | - | - | - |
| 1778074165 | 20° C | 76% | 1010.2 hPa | 33.02 mm | - | - | - |
| 1778072368 | 18.33° C | 82% | 1010.2 hPa | 33.02 mm | - | - | - |
| 1778072064 | 19.44° C | 78% | 1009.8 hPa | 33.02 mm | - | - | - |
| 1778071767 | 18.33° C | 81% | 1009.7 hPa | 33.02 mm | - | - | - |
| 1778070267 | 18.89° C | 80% | 1009.9 hPa | 33.02 mm | - | - | - |
| 1778069666 | 18.33° C | 80% | 1010 hPa | 33.02 mm | - | - | - |
| 1778069369 | 18.33° C | 79% | 1009.7 hPa | 33.02 mm | - | - | - |
| 1778069065 | 18.33° C | 79% | 1010 hPa | 33.02 mm | - | - | - |
| 1778067565 | 19.44° C | 79% | 1009.8 hPa | 33.02 mm | - | - | - |
| 1778066964 | 18.89° C | 82% | 1009.7 hPa | 33.02 mm | - | - | - |
| 1778066065 | 18.89° C | 79% | 1010 hPa | 33.02 mm | - | - | - |
* Rain since midnight (hover to see other rain measurements)
** Current wind speed in m/s (hover to see current wind gust speed)